sensor_id;sensor_type;location;lat;lon;timestamp;pressure;altitude;pressure_sealevel;temperature;humidity
2405;BME280;1213;43.206;27.922;2024-02-14T00:00:12;100932.91;;;8.25;100.00
2405;BME280;1213;43.206;27.922;2024-02-14T00:02:46;100924.97;;;8.26;100.00
2405;BME280;1213;43.206;27.922;2024-02-14T00:05:15;100929.06;;;8.30;100.00
2405;BME280;1213;43.206;27.922;2024-02-14T00:07:40;100928.66;;;8.22;100.00
2405;BME280;1213;43.206;27.922;2024-02-14T00:10:06;100932.81;;;8.26;100.00
2405;BME280;1213;43.206;27.922;2024-02-14T00:12:33;100924.22;;;8.24;100.00
2405;BME280;1213;43.206;27.922;2024-02-14T00:14:59;100933.41;;;8.31;100.00
2405;BME280;1213;43.206;27.922;2024-02-14T00:17:24;100935.84;;;8.34;100.00
2405;BME280;1213;43.206;27.922;2024-02-14T00:19:50;100929.38;;;8.42;100.00
2405;BME280;1213;43.206;27.922;2024-02-14T00:22:16;100938.94;;;8.43;100.00
2405;BME280;1213;43.206;27.922;2024-02-14T00:24:42;100936.31;;;8.43;100.00
2405;BME280;1213;43.206;27.922;2024-02-14T00:27:07;100941.63;;;8.57;100.00
2405;BME280;1213;43.206;27.922;2024-02-14T00:29:33;100935.47;;;8.58;100.00
2405;BME280;1213;43.206;27.922;2024-02-14T00:32:00;100937.06;;;8.60;100.00
2405;BME280;1213;43.206;27.922;2024-02-14T00:34:25;100934.84;;;8.69;100.00
2405;BME280;1213;43.206;27.922;2024-02-14T00:36:51;100945.28;;;8.70;100.00
2405;BME280;1213;43.206;27.922;2024-02-14T00:39:17;100936.31;;;8.74;100.00
2405;BME280;1213;43.206;27.922;2024-02-14T00:41:42;100930.22;;;8.74;100.00
2405;BME280;1213;43.206;27.922;2024-02-14T00:44:08;100936.63;;;8.68;100.00
2405;BME280;1213;43.206;27.922;2024-02-14T00:46:33;100935.22;;;8.63;100.00
2405;BME280;1213;43.206;27.922;2024-02-14T00:48:58;100932.00;;;8.57;100.00
2405;BME280;1213;43.206;27.922;2024-02-14T00:51:24;100936.91;;;8.48;100.00
2405;BME280;1213;43.206;27.922;2024-02-14T00:53:52;100937.84;;;8.47;100.00
2405;BME280;1213;43.206;27.922;2024-02-14T00:56:17;100938.84;;;8.44;100.00
2405;BME280;1213;43.206;27.922;2024-02-14T00:58:43;100937.91;;;8.45;100.00
2405;BME280;1213;43.206;27.922;2024-02-14T01:01:09;100938.75;;;8.46;100.00
2405;BME280;1213;43.206;27.922;2024-02-14T01:03:34;100945.00;;;8.43;100.00
2405;BME280;1213;43.206;27.922;2024-02-14T01:06:00;100939.44;;;8.49;100.00
2405;BME280;1213;43.206;27.922;2024-02-14T01:08:26;100947.06;;;8.54;100.00
2405;BME280;1213;43.206;27.922;2024-02-14T01:10:51;100943.00;;;8.48;100.00
2405;BME280;1213;43.206;27.922;2024-02-14T01:13:18;100945.44;;;8.51;100.00
2405;BME280;1213;43.206;27.922;2024-02-14T01:15:43;100949.06;;;8.49;100.00
2405;BME280;1213;43.206;27.922;2024-02-14T01:18:09;100953.63;;;8.45;100.00
2405;BME280;1213;43.206;27.922;2024-02-14T01:20:35;100949.91;;;8.49;100.00
2405;BME280;1213;43.206;27.922;2024-02-14T01:23:00;100958.84;;;8.45;100.00
2405;BME280;1213;43.206;27.922;2024-02-14T01:25:26;100958.78;;;8.47;100.00
2405;BME280;1213;43.206;27.922;2024-02-14T01:27:51;100962.25;;;8.47;100.00
2405;BME280;1213;43.206;27.922;2024-02-14T01:30:18;100961.22;;;8.50;100.00
2405;BME280;1213;43.206;27.922;2024-02-14T01:32:44;100969.84;;;8.52;100.00
2405;BME280;1213;43.206;27.922;2024-02-14T01:35:09;100970.69;;;8.52;100.00
2405;BME280;1213;43.206;27.922;2024-02-14T01:37:35;100971.69;;;8.50;100.00
2405;BME280;1213;43.206;27.922;2024-02-14T01:40:01;100968.56;;;8.43;100.00
2405;BME280;1213;43.206;27.922;2024-02-14T01:42:26;100961.31;;;8.48;100.00
2405;BME280;1213;43.206;27.922;2024-02-14T01:44:53;100975.78;;;8.55;100.00
2405;BME280;1213;43.206;27.922;2024-02-14T01:47:22;100974.50;;;8.47;100.00
2405;BME280;1213;43.206;27.922;2024-02-14T01:49:48;100975.66;;;8.41;100.00
2405;BME280;1213;43.206;27.922;2024-02-14T01:52:13;100976.25;;;8.46;100.00
2405;BME280;1213;43.206;27.922;2024-02-14T01:54:39;100978.81;;;8.48;100.00
2405;BME280;1213;43.206;27.922;2024-02-14T01:57:06;100978.97;;;8.60;100.00
2405;BME280;1213;43.206;27.922;2024-02-14T01:59:33;100976.09;;;8.49;100.00
2405;BME280;1213;43.206;27.922;2024-02-14T02:02:04;100974.09;;;8.54;100.00
2405;BME280;1213;43.206;27.922;2024-02-14T02:04:33;100969.00;;;8.51;100.00
2405;BME280;1213;43.206;27.922;2024-02-14T02:07:00;100969.50;;;8.42;100.00
2405;BME280;1213;43.206;27.922;2024-02-14T02:09:25;100978.88;;;8.46;100.00
2405;BME280;1213;43.206;27.922;2024-02-14T02:11:52;100969.31;;;8.45;100.00
2405;BME280;1213;43.206;27.922;2024-02-14T02:14:25;100970.13;;;8.30;100.00
2405;BME280;1213;43.206;27.922;2024-02-14T02:16:51;100971.81;;;8.31;100.00
2405;BME280;1213;43.206;27.922;2024-02-14T02:19:17;100981.00;;;8.40;100.00
2405;BME280;1213;43.206;27.922;2024-02-14T02:21:44;100984.97;;;8.47;100.00
2405;BME280;1213;43.206;27.922;2024-02-14T02:24:11;100981.66;;;8.43;100.00
2405;BME280;1213;43.206;27.922;2024-02-14T02:26:36;100980.06;;;8.41;100.00
2405;BME280;1213;43.206;27.922;2024-02-14T02:29:02;100982.28;;;8.31;100.00
2405;BME280;1213;43.206;27.922;2024-02-14T02:31:27;100974.50;;;8.29;100.00
2405;BME280;1213;43.206;27.922;2024-02-14T02:33:53;100981.78;;;8.24;100.00
2405;BME280;1213;43.206;27.922;2024-02-14T02:36:18;100982.84;;;8.20;100.00
2405;BME280;1213;43.206;27.922;2024-02-14T02:38:44;100987.84;;;8.09;100.00
2405;BME280;1213;43.206;27.922;2024-02-14T02:41:09;100996.25;;;8.14;100.00
2405;BME280;1213;43.206;27.922;2024-02-14T02:43:35;100999.97;;;8.10;100.00
2405;BME280;1213;43.206;27.922;2024-02-14T02:46:01;101000.06;;;8.09;100.00
2405;BME280;1213;43.206;27.922;2024-02-14T02:48:26;101001.50;;;8.14;100.00
2405;BME280;1213;43.206;27.922;2024-02-14T02:50:52;101000.91;;;8.09;100.00
2405;BME280;1213;43.206;27.922;2024-02-14T02:53:18;101007.44;;;8.00;100.00
2405;BME280;1213;43.206;27.922;2024-02-14T02:55:44;101014.13;;;8.06;100.00
2405;BME280;1213;43.206;27.922;2024-02-14T02:58:10;101008.47;;;7.98;100.00
2405;BME280;1213;43.206;27.922;2024-02-14T03:00:36;101017.31;;;7.95;100.00
2405;BME280;1213;43.206;27.922;2024-02-14T03:03:01;101028.72;;;7.94;100.00
2405;BME280;1213;43.206;27.922;2024-02-14T03:05:33;101010.41;;;7.94;100.00
2405;BME280;1213;43.206;27.922;2024-02-14T03:07:59;101018.69;;;7.85;100.00
2405;BME280;1213;43.206;27.922;2024-02-14T03:10:25;101020.72;;;7.80;100.00
2405;BME280;1213;43.206;27.922;2024-02-14T03:12:51;101021.25;;;7.69;100.00
2405;BME280;1213;43.206;27.922;2024-02-14T03:15:17;101024.09;;;7.65;100.00
2405;BME280;1213;43.206;27.922;2024-02-14T03:17:43;101023.56;;;7.75;100.00
2405;BME280;1213;43.206;27.922;2024-02-14T03:20:09;101035.97;;;7.72;100.00
2405;BME280;1213;43.206;27.922;2024-02-14T03:22:36;101029.25;;;7.66;100.00
2405;BME280;1213;43.206;27.922;2024-02-14T03:25:02;101038.50;;;7.73;100.00
2405;BME280;1213;43.206;27.922;2024-02-14T03:27:28;101037.00;;;7.68;100.00
2405;BME280;1213;43.206;27.922;2024-02-14T03:29:53;101041.25;;;7.70;100.00
2405;BME280;1213;43.206;27.922;2024-02-14T03:32:20;101028.31;;;7.67;100.00
2405;BME280;1213;43.206;27.922;2024-02-14T03:34:45;101042.16;;;7.69;100.00
2405;BME280;1213;43.206;27.922;2024-02-14T03:37:11;101040.09;;;7.76;100.00
2405;BME280;1213;43.206;27.922;2024-02-14T03:39:36;101041.19;;;7.72;100.00
2405;BME280;1213;43.206;27.922;2024-02-14T03:42:03;101032.53;;;7.70;100.00
2405;BME280;1213;43.206;27.922;2024-02-14T03:44:33;101047.84;;;7.60;100.00
2405;BME280;1213;43.206;27.922;2024-02-14T03:46:59;101055.50;;;7.65;100.00
2405;BME280;1213;43.206;27.922;2024-02-14T03:49:25;101062.03;;;7.73;100.00
2405;BME280;1213;43.206;27.922;2024-02-14T03:51:51;101062.31;;;7.67;100.00
2405;BME280;1213;43.206;27.922;2024-02-14T03:54:20;101071.31;;;7.62;100.00
2405;BME280;1213;43.206;27.922;2024-02-14T03:56:45;101067.63;;;7.66;100.00
2405;BME280;1213;43.206;27.922;2024-02-14T03:59:11;101076.09;;;7.71;100.00
2405;BME280;1213;43.206;27.922;2024-02-14T04:01:36;101081.34;;;7.71;100.00
2405;BME280;1213;43.206;27.922;2024-02-14T04:04:01;101086.16;;;7.61;100.00
2405;BME280;1213;43.206;27.922;2024-02-14T04:06:27;101087.59;;;7.49;100.00
2405;BME280;1213;43.206;27.922;2024-02-14T04:08:53;101088.16;;;7.56;100.00
2405;BME280;1213;43.206;27.922;2024-02-14T04:11:18;101089.59;;;7.62;100.00
2405;BME280;1213;43.206;27.922;2024-02-14T04:13:44;101094.38;;;7.54;100.00
2405;BME280;1213;43.206;27.922;2024-02-14T04:16:11;101100.44;;;7.54;100.00
2405;BME280;1213;43.206;27.922;2024-02-14T04:18:37;101097.47;;;7.62;100.00
2405;BME280;1213;43.206;27.922;2024-02-14T04:21:02;101109.44;;;7.48;100.00
2405;BME280;1213;43.206;27.922;2024-02-14T04:23:29;101100.81;;;7.46;100.00
2405;BME280;1213;43.206;27.922;2024-02-14T04:25:54;101103.78;;;7.58;100.00
2405;BME280;1213;43.206;27.922;2024-02-14T04:28:20;101105.06;;;7.49;100.00
2405;BME280;1213;43.206;27.922;2024-02-14T04:30:45;101109.28;;;7.51;100.00
2405;BME280;1213;43.206;27.922;2024-02-14T04:33:11;101115.72;;;7.44;100.00
2405;BME280;1213;43.206;27.922;2024-02-14T04:35:36;101108.56;;;7.48;100.00
2405;BME280;1213;43.206;27.922;2024-02-14T04:38:02;101108.72;;;7.45;100.00
2405;BME280;1213;43.206;27.922;2024-02-14T04:40:27;101108.81;;;7.43;100.00
2405;BME280;1213;43.206;27.922;2024-02-14T04:42:53;101124.13;;;7.51;100.00
2405;BME280;1213;43.206;27.922;2024-02-14T04:45:19;101111.81;;;7.53;100.00
2405;BME280;1213;43.206;27.922;2024-02-14T04:47:44;101119.97;;;7.47;100.00
2405;BME280;1213;43.206;27.922;2024-02-14T04:50:10;101122.69;;;7.63;100.00
2405;BME280;1213;43.206;27.922;2024-02-14T04:52:35;101123.69;;;7.60;100.00
2405;BME280;1213;43.206;27.922;2024-02-14T04:55:01;101128.72;;;7.46;100.00
2405;BME280;1213;43.206;27.922;2024-02-14T04:57:26;101136.06;;;7.57;100.00
2405;BME280;1213;43.206;27.922;2024-02-14T04:59:51;101138.81;;;7.54;100.00
2405;BME280;1213;43.206;27.922;2024-02-14T05:02:17;101141.78;;;7.65;100.00
2405;BME280;1213;43.206;27.922;2024-02-14T05:04:43;101151.44;;;7.63;100.00
2405;BME280;1213;43.206;27.922;2024-02-14T05:07:09;101142.69;;;7.64;100.00
2405;BME280;1213;43.206;27.922;2024-02-14T05:09:34;101151.44;;;7.63;100.00
2405;BME280;1213;43.206;27.922;2024-02-14T05:11:59;101167.63;;;7.71;100.00
2405;BME280;1213;43.206;27.922;2024-02-14T05:14:25;101174.78;;;7.67;100.00
2405;BME280;1213;43.206;27.922;2024-02-14T05:16:51;101172.34;;;7.63;100.00
2405;BME280;1213;43.206;27.922;2024-02-14T05:19:16;101176.69;;;7.64;100.00
2405;BME280;1213;43.206;27.922;2024-02-14T05:21:42;101180.94;;;7.84;100.00
2405;BME280;1213;43.206;27.922;2024-02-14T05:24:07;101185.41;;;7.82;100.00
2405;BME280;1213;43.206;27.922;2024-02-14T05:26:34;101191.97;;;7.90;100.00
2405;BME280;1213;43.206;27.922;2024-02-14T05:28:59;101187.66;;;7.89;100.00
2405;BME280;1213;43.206;27.922;2024-02-14T05:31:28;101182.59;;;7.86;100.00
2405;BME280;1213;43.206;27.922;2024-02-14T05:34:08;101179.56;;;7.76;100.00
2405;BME280;1213;43.206;27.922;2024-02-14T05:36:33;101190.09;;;7.75;100.00
2405;BME280;1213;43.206;27.922;2024-02-14T05:38:59;101208.50;;;7.91;100.00
2405;BME280;1213;43.206;27.922;2024-02-14T05:41:24;101204.28;;;7.88;100.00
2405;BME280;1213;43.206;27.922;2024-02-14T05:43:50;101208.06;;;8.00;100.00
2405;BME280;1213;43.206;27.922;2024-02-14T05:46:16;101214.38;;;7.96;100.00
2405;BME280;1213;43.206;27.922;2024-02-14T05:48:42;101206.25;;;8.02;100.00
2405;BME280;1213;43.206;27.922;2024-02-14T05:51:07;101222.50;;;8.09;100.00
2405;BME280;1213;43.206;27.922;2024-02-14T05:53:32;101219.88;;;8.09;100.00
2405;BME280;1213;43.206;27.922;2024-02-14T05:55:59;101225.13;;;8.09;100.00
2405;BME280;1213;43.206;27.922;2024-02-14T05:58:24;101222.50;;;8.09;100.00
2405;BME280;1213;43.206;27.922;2024-02-14T06:00:54;101221.66;;;8.25;100.00
2405;BME280;1213;43.206;27.922;2024-02-14T06:03:20;101228.91;;;8.38;100.00
2405;BME280;1213;43.206;27.922;2024-02-14T06:05:45;101229.13;;;8.33;100.00
2405;BME280;1213;43.206;27.922;2024-02-14T06:08:11;101230.78;;;8.36;100.00
2405;BME280;1213;43.206;27.922;2024-02-14T06:10:36;101232.84;;;8.46;100.00
2405;BME280;1213;43.206;27.922;2024-02-14T06:13:04;101230.47;;;8.59;100.00
2405;BME280;1213;43.206;27.922;2024-02-14T06:15:29;101233.78;;;8.63;100.00
2405;BME280;1213;43.206;27.922;2024-02-14T06:17:55;101238.03;;;8.65;100.00
2405;BME280;1213;43.206;27.922;2024-02-14T06:20:20;101241.31;;;8.69;100.00
2405;BME280;1213;43.206;27.922;2024-02-14T06:22:46;101245.19;;;8.61;100.00
2405;BME280;1213;43.206;27.922;2024-02-14T06:25:11;101243.03;;;8.70;100.00
2405;BME280;1213;43.206;27.922;2024-02-14T06:27:37;101249.63;;;8.94;100.00
2405;BME280;1213;43.206;27.922;2024-02-14T06:30:03;101250.00;;;9.04;100.00
2405;BME280;1213;43.206;27.922;2024-02-14T06:32:29;101253.03;;;8.79;100.00
2405;BME280;1213;43.206;27.922;2024-02-14T06:34:54;101270.75;;;8.91;100.00
2405;BME280;1213;43.206;27.922;2024-02-14T06:37:19;101257.81;;;8.88;100.00
2405;BME280;1213;43.206;27.922;2024-02-14T06:39:45;101259.81;;;8.83;100.00
2405;BME280;1213;43.206;27.922;2024-02-14T06:42:10;101268.38;;;8.86;100.00
2405;BME280;1213;43.206;27.922;2024-02-14T06:44:36;101269.06;;;8.73;100.00
2405;BME280;1213;43.206;27.922;2024-02-14T06:47:01;101277.31;;;8.65;100.00
2405;BME280;1213;43.206;27.922;2024-02-14T06:49:27;101276.94;;;8.55;100.00
2405;BME280;1213;43.206;27.922;2024-02-14T06:51:53;101275.06;;;8.57;100.00
2405;BME280;1213;43.206;27.922;2024-02-14T06:54:22;101272.84;;;8.67;100.00
2405;BME280;1213;43.206;27.922;2024-02-14T06:56:47;101276.75;;;8.76;100.00
2405;BME280;1213;43.206;27.922;2024-02-14T06:59:13;101276.94;;;8.73;100.00
2405;BME280;1213;43.206;27.922;2024-02-14T07:01:39;101279.63;;;8.88;100.00
2405;BME280;1213;43.206;27.922;2024-02-14T07:04:04;101276.28;;;9.02;100.00
2405;BME280;1213;43.206;27.922;2024-02-14T07:06:33;101285.22;;;8.98;100.00
2405;BME280;1213;43.206;27.922;2024-02-14T07:08:58;101285.94;;;9.02;100.00
2405;BME280;1213;43.206;27.922;2024-02-14T07:11:23;101278.25;;;9.32;100.00
2405;BME280;1213;43.206;27.922;2024-02-14T07:13:49;101285.69;;;9.39;100.00
2405;BME280;1213;43.206;27.922;2024-02-14T07:16:14;101289.09;;;9.57;100.00
2405;BME280;1213;43.206;27.922;2024-02-14T07:18:40;101290.25;;;9.69;100.00
2405;BME280;1213;43.206;27.922;2024-02-14T07:21:06;101289.56;;;9.81;100.00
2405;BME280;1213;43.206;27.922;2024-02-14T07:23:32;101287.00;;;10.11;100.00
2405;BME280;1213;43.206;27.922;2024-02-14T07:25:59;101281.31;;;10.19;100.00
2405;BME280;1213;43.206;27.922;2024-02-14T07:28:26;101296.66;;;10.11;100.00
2405;BME280;1213;43.206;27.922;2024-02-14T07:30:51;101291.00;;;9.87;100.00
2405;BME280;1213;43.206;27.922;2024-02-14T07:33:17;101305.56;;;9.61;100.00
2405;BME280;1213;43.206;27.922;2024-02-14T07:35:42;101291.50;;;9.78;100.00
2405;BME280;1213;43.206;27.922;2024-02-14T07:38:08;101311.38;;;9.82;100.00
2405;BME280;1213;43.206;27.922;2024-02-14T07:40:34;101305.81;;;9.88;100.00
2405;BME280;1213;43.206;27.922;2024-02-14T07:43:00;101289.97;;;9.73;100.00
2405;BME280;1213;43.206;27.922;2024-02-14T07:45:25;101294.88;;;9.80;100.00
2405;BME280;1213;43.206;27.922;2024-02-14T07:47:51;101293.44;;;9.90;100.00
2405;BME280;1213;43.206;27.922;2024-02-14T07:50:17;101307.03;;;9.98;100.00
2405;BME280;1213;43.206;27.922;2024-02-14T07:52:43;101308.63;;;9.85;100.00
2405;BME280;1213;43.206;27.922;2024-02-14T07:55:09;101310.19;;;9.56;100.00
2405;BME280;1213;43.206;27.922;2024-02-14T07:57:40;101321.84;;;9.50;100.00
2405;BME280;1213;43.206;27.922;2024-02-14T08:00:07;101312.59;;;9.43;100.00
2405;BME280;1213;43.206;27.922;2024-02-14T08:02:36;101323.09;;;9.43;100.00
2405;BME280;1213;43.206;27.922;2024-02-14T08:05:02;101330.38;;;9.38;100.00
2405;BME280;1213;43.206;27.922;2024-02-14T08:07:30;101318.63;;;9.45;100.00
2405;BME280;1213;43.206;27.922;2024-02-14T08:09:56;101326.16;;;9.51;100.00
2405;BME280;1213;43.206;27.922;2024-02-14T08:12:21;101327.91;;;9.68;100.00
2405;BME280;1213;43.206;27.922;2024-02-14T08:14:48;101324.94;;;9.90;100.00
2405;BME280;1213;43.206;27.922;2024-02-14T08:17:13;101309.56;;;9.99;100.00
2405;BME280;1213;43.206;27.922;2024-02-14T08:19:39;101301.44;;;10.36;100.00
2405;BME280;1213;43.206;27.922;2024-02-14T08:22:05;101309.47;;;10.33;100.00
2405;BME280;1213;43.206;27.922;2024-02-14T08:24:31;101310.72;;;10.41;100.00
2405;BME280;1213;43.206;27.922;2024-02-14T08:26:56;101316.13;;;10.54;100.00
2405;BME280;1213;43.206;27.922;2024-02-14T08:29:22;101310.66;;;10.43;100.00
2405;BME280;1213;43.206;27.922;2024-02-14T08:31:47;101311.09;;;10.65;100.00
2405;BME280;1213;43.206;27.922;2024-02-14T08:34:14;101312.53;;;10.71;100.00
2405;BME280;1213;43.206;27.922;2024-02-14T08:36:39;101331.84;;;10.24;100.00
2405;BME280;1213;43.206;27.922;2024-02-14T08:39:07;101329.09;;;10.10;100.00
2405;BME280;1213;43.206;27.922;2024-02-14T08:41:33;101327.00;;;10.32;100.00
2405;BME280;1213;43.206;27.922;2024-02-14T08:43:58;101333.06;;;10.64;100.00
2405;BME280;1213;43.206;27.922;2024-02-14T08:46:24;101332.00;;;10.82;100.00
2405;BME280;1213;43.206;27.922;2024-02-14T08:48:50;101340.78;;;10.97;100.00
2405;BME280;1213;43.206;27.922;2024-02-14T08:51:17;101331.38;;;10.93;100.00
2405;BME280;1213;43.206;27.922;2024-02-14T08:53:46;101335.03;;;10.91;100.00
2405;BME280;1213;43.206;27.922;2024-02-14T08:56:11;101334.81;;;10.79;100.00
2405;BME280;1213;43.206;27.922;2024-02-14T08:58:38;101328.75;;;10.93;100.00
2405;BME280;1213;43.206;27.922;2024-02-14T09:01:03;101342.91;;;10.61;100.00
2405;BME280;1213;43.206;27.922;2024-02-14T09:03:29;101328.88;;;10.46;100.00
2405;BME280;1213;43.206;27.922;2024-02-14T09:05:57;101327.16;;;10.61;100.00
2405;BME280;1213;43.206;27.922;2024-02-14T09:08:22;101317.16;;;10.51;100.00
2405;BME280;1213;43.206;27.922;2024-02-14T09:10:49;101312.06;;;10.48;100.00
2405;BME280;1213;43.206;27.922;2024-02-14T09:13:15;101309.19;;;10.53;100.00
2405;BME280;1213;43.206;27.922;2024-02-14T09:15:40;101309.22;;;10.37;100.00
2405;BME280;1213;43.206;27.922;2024-02-14T09:18:06;101310.16;;;10.20;100.00
2405;BME280;1213;43.206;27.922;2024-02-14T09:20:31;101301.34;;;10.37;100.00
2405;BME280;1213;43.206;27.922;2024-02-14T09:22:57;101305.63;;;10.54;100.00
2405;BME280;1213;43.206;27.922;2024-02-14T09:25:24;101300.22;;;10.41;100.00
2405;BME280;1213;43.206;27.922;2024-02-14T09:27:51;101299.88;;;10.47;100.00
2405;BME280;1213;43.206;27.922;2024-02-14T09:30:16;101308.72;;;10.15;100.00
2405;BME280;1213;43.206;27.922;2024-02-14T09:32:44;101297.88;;;10.21;100.00
2405;BME280;1213;43.206;27.922;2024-02-14T09:35:09;101311.00;;;10.21;100.00
2405;BME280;1213;43.206;27.922;2024-02-14T09:37:35;101291.28;;;10.30;100.00
2405;BME280;1213;43.206;27.922;2024-02-14T09:40:04;101286.19;;;10.56;100.00
2405;BME280;1213;43.206;27.922;2024-02-14T09:42:53;101299.88;;;10.77;100.00
2405;BME280;1213;43.206;27.922;2024-02-14T09:45:20;101282.47;;;10.61;100.00
2405;BME280;1213;43.206;27.922;2024-02-14T09:47:45;101291.28;;;10.90;100.00
2405;BME280;1213;43.206;27.922;2024-02-14T09:50:12;101301.53;;;11.08;100.00
2405;BME280;1213;43.206;27.922;2024-02-14T09:52:38;101298.75;;;11.11;100.00
2405;BME280;1213;43.206;27.922;2024-02-14T09:55:04;101308.97;;;11.30;100.00
2405;BME280;1213;43.206;27.922;2024-02-14T09:57:31;101297.63;;;11.30;100.00
2405;BME280;1213;43.206;27.922;2024-02-14T09:59:58;101305.78;;;11.11;100.00
2405;BME280;1213;43.206;27.922;2024-02-14T10:02:25;101320.31;;;10.72;100.00
2405;BME280;1213;43.206;27.922;2024-02-14T10:04:50;101333.00;;;10.66;100.00
2405;BME280;1213;43.206;27.922;2024-02-14T10:07:16;101312.16;;;10.47;100.00
2405;BME280;1213;43.206;27.922;2024-02-14T10:09:42;101332.84;;;10.53;100.00
2405;BME280;1213;43.206;27.922;2024-02-14T10:12:08;101328.63;;;10.50;100.00
2405;BME280;1213;43.206;27.922;2024-02-14T10:14:34;101332.72;;;10.70;100.00
2405;BME280;1213;43.206;27.922;2024-02-14T10:17:01;101330.38;;;10.80;100.00
2405;BME280;1213;43.206;27.922;2024-02-14T10:19:26;101334.84;;;10.94;100.00
2405;BME280;1213;43.206;27.922;2024-02-14T10:21:56;101337.13;;;10.70;100.00
2405;BME280;1213;43.206;27.922;2024-02-14T10:24:27;101341.25;;;10.44;100.00
2405;BME280;1213;43.206;27.922;2024-02-14T10:26:53;101330.66;;;10.30;100.00
2405;BME280;1213;43.206;27.922;2024-02-14T10:29:22;101335.44;;;10.69;100.00
2405;BME280;1213;43.206;27.922;2024-02-14T10:31:48;101339.25;;;10.93;100.00
2405;BME280;1213;43.206;27.922;2024-02-14T10:34:13;101341.19;;;10.75;100.00
2405;BME280;1213;43.206;27.922;2024-02-14T10:36:39;101332.94;;;10.81;100.00
2405;BME280;1213;43.206;27.922;2024-02-14T10:39:09;101352.84;;;10.86;100.00
2405;BME280;1213;43.206;27.922;2024-02-14T10:41:36;101350.09;;;10.57;100.00
2405;BME280;1213;43.206;27.922;2024-02-14T10:44:03;101352.69;;;10.73;100.00
2405;BME280;1213;43.206;27.922;2024-02-14T10:46:32;101343.97;;;10.72;100.00
2405;BME280;1213;43.206;27.922;2024-02-14T10:49:02;101359.34;;;10.64;100.00
2405;BME280;1213;43.206;27.922;2024-02-14T10:51:31;101360.34;;;10.77;100.00
2405;BME280;1213;43.206;27.922;2024-02-14T10:53:58;101356.72;;;10.94;100.00
2405;BME280;1213;43.206;27.922;2024-02-14T10:56:28;101359.53;;;10.91;100.00
2405;BME280;1213;43.206;27.922;2024-02-14T10:58:56;101358.91;;;11.02;100.00
2405;BME280;1213;43.206;27.922;2024-02-14T11:01:26;101367.69;;;11.17;100.00
2405;BME280;1213;43.206;27.922;2024-02-14T11:03:56;101363.25;;;11.17;100.00
2405;BME280;1213;43.206;27.922;2024-02-14T11:06:23;101371.94;;;11.19;100.00
2405;BME280;1213;43.206;27.922;2024-02-14T11:08:56;101371.09;;;11.03;100.00
2405;BME280;1213;43.206;27.922;2024-02-14T11:11:22;101383.78;;;10.35;100.00
2405;BME280;1213;43.206;27.922;2024-02-14T11:13:52;101378.34;;;10.22;100.00
2405;BME280;1213;43.206;27.922;2024-02-14T11:16:18;101379.97;;;10.40;100.00
2405;BME280;1213;43.206;27.922;2024-02-14T11:18:47;101388.75;;;10.71;100.00
2405;BME280;1213;43.206;27.922;2024-02-14T11:21:16;101381.13;;;10.82;100.00
2405;BME280;1213;43.206;27.922;2024-02-14T11:23:52;101380.25;;;10.81;100.00
2405;BME280;1213;43.206;27.922;2024-02-14T11:26:19;101378.97;;;10.73;100.00
2405;BME280;1213;43.206;27.922;2024-02-14T11:28:45;101383.09;;;10.63;100.00
2405;BME280;1213;43.206;27.922;2024-02-14T11:31:16;101375.34;;;10.75;100.00
2405;BME280;1213;43.206;27.922;2024-02-14T11:33:42;101385.47;;;10.67;100.00
2405;BME280;1213;43.206;27.922;2024-02-14T11:36:11;101390.22;;;10.45;100.00
2405;BME280;1213;43.206;27.922;2024-02-14T11:38:40;101381.41;;;10.46;100.00
2405;BME280;1213;43.206;27.922;2024-02-14T11:41:06;101388.94;;;10.68;100.00
2405;BME280;1213;43.206;27.922;2024-02-14T11:43:32;101384.78;;;10.94;100.00
2405;BME280;1213;43.206;27.922;2024-02-14T11:45:57;101379.63;;;10.92;100.00
2405;BME280;1213;43.206;27.922;2024-02-14T11:48:23;101370.34;;;11.01;100.00
2405;BME280;1213;43.206;27.922;2024-02-14T11:50:51;101382.94;;;10.96;100.00
2405;BME280;1213;43.206;27.922;2024-02-14T11:53:17;101381.50;;;10.90;100.00
2405;BME280;1213;43.206;27.922;2024-02-14T11:55:44;101380.63;;;10.60;100.00
2405;BME280;1213;43.206;27.922;2024-02-14T11:58:16;101376.38;;;10.57;100.00
2405;BME280;1213;43.206;27.922;2024-02-14T12:00:46;101386.91;;;10.25;100.00
2405;BME280;1213;43.206;27.922;2024-02-14T12:03:15;101396.72;;;10.06;100.00
2405;BME280;1213;43.206;27.922;2024-02-14T12:05:42;101384.41;;;10.07;100.00
2405;BME280;1213;43.206;27.922;2024-02-14T12:08:09;101398.66;;;10.18;100.00
2405;BME280;1213;43.206;27.922;2024-02-14T12:10:35;101384.53;;;10.21;100.00
2405;BME280;1213;43.206;27.922;2024-02-14T12:13:11;101386.91;;;10.25;100.00
2405;BME280;1213;43.206;27.922;2024-02-14T12:15:46;101390.69;;;10.20;100.00
2405;BME280;1213;43.206;27.922;2024-02-14T12:18:12;101403.41;;;10.27;100.00
2405;BME280;1213;43.206;27.922;2024-02-14T12:20:42;101393.59;;;10.31;100.00
2405;BME280;1213;43.206;27.922;2024-02-14T12:23:19;101387.13;;;10.05;100.00
2405;BME280;1213;43.206;27.922;2024-02-14T12:25:47;101403.75;;;10.06;100.00
2405;BME280;1213;43.206;27.922;2024-02-14T12:28:15;101393.31;;;10.20;100.00
2405;BME280;1213;43.206;27.922;2024-02-14T12:30:46;101387.75;;;10.26;100.00
2405;BME280;1213;43.206;27.922;2024-02-14T12:33:15;101410.19;;;10.16;100.00
2405;BME280;1213;43.206;27.922;2024-02-14T12:35:45;101394.81;;;9.92;100.00
2405;BME280;1213;43.206;27.922;2024-02-14T12:38:11;101401.84;;;9.92;100.00
2405;BME280;1213;43.206;27.922;2024-02-14T12:40:38;101404.16;;;9.98;100.00
2405;BME280;1213;43.206;27.922;2024-02-14T12:43:03;101405.41;;;9.73;100.00
2405;BME280;1213;43.206;27.922;2024-02-14T12:45:31;101413.06;;;9.78;100.00
2405;BME280;1213;43.206;27.922;2024-02-14T12:47:56;101413.72;;;9.99;100.00
2405;BME280;1213;43.206;27.922;2024-02-14T12:50:22;101407.06;;;9.76;100.00
2405;BME280;1213;43.206;27.922;2024-02-14T12:52:47;101425.47;;;9.74;100.00